Aviation Digital Data Service (ADDS)

Output produced by METARs form (0308 UTC 25 January 2020)
found at http://www.aviationweather.gov/metar/data/
 
Forecast for: ZSJN (JINAN YAOQIANG , CN)
Text: TAF ZSJN 250301Z 2506/2606 06003MPS 3500 BR NSC TX07/2506Z TNM04/2522Z
Forecast period: 0600 UTC 25 January 2020 to 0600 UTC 26 January 2020
Forecast type: FROM: standard forecast or significant change
Winds: from the ENE (60 degrees) at 7 MPH (6 knots; 3.1 m/s)
Visibility: 2.17 miles (3.49 km)
Ceiling: unknown
Clouds: missing
Weather: BR  (mist)